Norwegian Getaway — C6ZJ4 — position and weather

sailwx.info

Track history (hours):
 
Tides and Currents Weather Stations Pressure Air Temp Water Temp Dewpoint Dewpoint Depression Visibility Wind Speed Wind Dir Waves Ship Positions

Norwegian Getaway

Last reported at 2019-Nov-11 04:00 UTC. Time now 2019-Nov-11 22:45 UTC.
Position N 19°12' W 079°42'.

Length 326 m; draft 8.7 m.

Type: Ship. MMSI: 311050900.

Wind from 070 at 34 knots

Barometer 1011.4 mb
Air temperature 27.0 ° C
Visibility: greater than 5.4 NM
Water temperature 30.0 ° C

Date/timePositionNaut miles runAvg speedWind from/ knotsBaromVisibWave heightAir tempDewpointWater temp
2019-Nov-11 04:00N 19°12' W 079°42'6716.7 070 / 341011.4 5.4 27.0 30.0
2019-Nov-11 00:00N 19°36' W 080°48'8216.3 070 / 151011.2 2.2 23.0 30.0
2019-Nov-10 19:00N 20°12' W 082°06'12017.1 100 / 201010.610.8 29.0 30.0
2019-Nov-10 12:00N 21°06' W 084°00'61417.9 060 / 261012.110.8 27.0 30.0
2019-Nov-09 01:46N 29°47' W 090°01'10 7.2
2019-Nov-09 00:24N 29°56' W 090°00'3 3.1
2019-Nov-08 23:25N 29°57' W 090°04'0 0.0
2019-Nov-08 21:54N 29°57' W 090°04'0 0.0
2019-Nov-08 21:30N 29°57' W 090°04'0 0.0
2019-Nov-08 20:59N 29°57' W 090°04'0 0.0
2019-Nov-08 20:26N 29°57' W 090°04'0 0.0
2019-Nov-08 17:29N 29°57' W 090°04'0 0.0
2019-Nov-08 16:25N 29°57' W 090°04'9 1.7
2019-Nov-08 10:59N 29°52' W 089°54'12912.9
2019-Nov-08 01:00N 28°06' W 088°30'47517.0 140 / 171016.910.8 25.0 27.0
2019-Nov-06 21:01N 25°42' W 080°03'8 1.4
2019-Nov-06 15:29N 25°46' W 080°10'0 0.0
2019-Nov-06 14:59N 25°46' W 080°10'0 0.0
2019-Nov-06 14:29N 25°46' W 080°10'0 0.0
2019-Nov-06 13:59N 25°46' W 080°10'0 0.0
2019-Nov-06 13:29N 25°46' W 080°10'1 0.2
2019-Nov-06 08:30N 25°46' W 080°09'2311.4
2019-Nov-06 06:30N 25°56' W 079°46'1811.9
2019-Nov-06 04:59N 26°06' W 079°29'  
Track history (hours):
 
Tides and Currents Weather Stations Pressure Air Temp Water Temp Dewpoint Dewpoint Depression Visibility Wind Speed Wind Dir Waves Ship Positions

Norwegian Getaway

Last reported at 2019-Nov-11 04:00 UTC. Time now 2019-Nov-11 22:45 UTC.
Position N 19°12' W 079°42'.

Length 326 m; draft 8.7 m.

Type: Ship. MMSI: 311050900.

Wind from 070 at 34 knots

Barometer 1011.4 mb
Air temperature 27.0 ° C
Visibility: greater than 5.4 NM
Water temperature 30.0 ° C

Date/timePositionNaut miles runAvg speedWind from/ knotsBaromVisibWave heightAir tempDewpointWater temp
2019-Nov-11 04:00N 19°12' W 079°42'6716.7 070 / 341011.4 5.4 27.0 30.0
2019-Nov-11 00:00N 19°36' W 080°48'8216.3 070 / 151011.2 2.2 23.0 30.0
2019-Nov-10 19:00N 20°12' W 082°06'12017.1 100 / 201010.610.8 29.0 30.0
2019-Nov-10 12:00N 21°06' W 084°00'61417.9 060 / 261012.110.8 27.0 30.0
2019-Nov-09 01:46N 29°47' W 090°01'10 7.2
2019-Nov-09 00:24N 29°56' W 090°00'3 3.1
2019-Nov-08 23:25N 29°57' W 090°04'0 0.0
2019-Nov-08 21:54N 29°57' W 090°04'0 0.0
2019-Nov-08 21:30N 29°57' W 090°04'0 0.0
2019-Nov-08 20:59N 29°57' W 090°04'0 0.0
2019-Nov-08 20:26N 29°57' W 090°04'0 0.0
2019-Nov-08 17:29N 29°57' W 090°04'0 0.0
2019-Nov-08 16:25N 29°57' W 090°04'9 1.7
2019-Nov-08 10:59N 29°52' W 089°54'12912.9
2019-Nov-08 01:00N 28°06' W 088°30'47517.0 140 / 171016.910.8 25.0 27.0
2019-Nov-06 21:01N 25°42' W 080°03'8 1.4
2019-Nov-06 15:29N 25°46' W 080°10'0 0.0
2019-Nov-06 14:59N 25°46' W 080°10'0 0.0
2019-Nov-06 14:29N 25°46' W 080°10'0 0.0
2019-Nov-06 13:59N 25°46' W 080°10'0 0.0
2019-Nov-06 13:29N 25°46' W 080°10'1 0.2
2019-Nov-06 08:30N 25°46' W 080°09'2311.4
2019-Nov-06 06:30N 25°56' W 079°46'1811.9
2019-Nov-06 04:59N 26°06' W 079°29'  

Dump ship's entire track history